Impacts TAF Board INFO
FOR SITUATIONAL AWARENESS. NOT TO BE USED FOR FLIGHT PLANNING PURPOSES.
IDs:

KMCO - Orlando Intl, FL, US

Issued at 1720 UTC 16 Aug 2018
Updated at 2020 UTC 16 Aug 2018
Potential Impact None Slight Moderate High
Time1953Z 16/21Z 16/22Z 16/23Z 17/00Z 17/01Z 17/02Z 17/03Z 17/04Z 17/05Z 17/06Z 17/07Z 17/08Z 17/09Z>>
Type OBS PRVL PRVL PRVL PRVL PRVL PRVL PRVL PRVL PRVL PRVL PRVL PRVL PRVL
VIS 10 >6 >6 >6 >6 >6 >6 >6 >6 >6 >6 >6 >6 >6
CIG 250 -- -- 120 120 120 -- -- -- -- -- -- -- --
Cover BKN SCT SCT BKN BKN BKN SCT SCT SCT SCT SCT SCT SCT SCT
FltCat VFR VFR VFR VFR VFR VFR VFR VFR VFR VFR VFR VFR VFR VFR
WX -- VCTS VCTS VCSH VCSH VCSH -- -- -- -- -- -- -- --
WDir 80 120 120 110 110 110 130 130 130 130 130 130 130 130
WSpd 8 7 7 7 7 7 3 3 3 3 3 3 3 3
WGst -- -- -- -- -- -- -- -- -- -- -- -- -- --

Raw TAF
KMCO 161720Z 1618/1724 14007KT P6SM FEW040 SCT250
  FM161900 12007KT P6SM VCTS SCT040CB SCT120
  FM162300 11007KT P6SM VCSH SCT035 BKN120
  FM170200 13003KT P6SM SCT250
  FM171400 14008KT P6SM FEW030


Raw METAR
KMCO 161953Z 08008KT 10SM SCT060 BKN250 34/22 A3012 RMK AO2 SLP199 T03440217
KMCO 161853Z 17005KT 10SM FEW050 BKN250 34/21 A3014 RMK AO2 RAB20E30 SLP205 P0000 T03390211
KMCO 161753Z 17008KT 10SM SCT044 SCT250 34/22 A3016 RMK AO2 SLP211 T03390217 10339 20261 58004

METAR Board
Radar Display
Forecast Discussion

FOR SITUATIONAL AWARENESS. NOT TO BE USED FOR FLIGHT PLANNING PURPOSES.